Airfield :
LOGIN :

Register | Disclaimer

   EN    FR    IT 

 










Legend :    VFR   Marginal VFR   IFR   Intensive IFR   Very Intensive IFR
Visi :
Ceiling :
>= 8 km
>= 3000ft
5 to 8 km
1000 to 3000 ft
1500m to 5 km
500 to 1000 ft
800 to 1500m
200 to 500 ft
< 800m
< 200 ft
Symbols :   Thunderstorms  Fog  Heavy snow  Heavy precipitations  Wind > 20 kt
SIGMETs :     Misc.  Thunderstorms  Icing  Turbulence  Mountain Waves  Volcanic Ashes







- Airport Elevation : 1090 ft
- IATA code : CFE
- Download approach charts


LFLC - Clermont-Ferrand Auvergne

CURRENT METAR :
  • 210800Z AUTO 35006KT 7000 OVC007 02/01 Q1019 TEMPO 2000 -SN BR BECMG BKN010 BKN018

EXPIRED METARs :
  • 210730Z AUTO 34005KT 320V020 9999 OVC009 03/01 Q1019 TEMPO 2000 -SN BR BECMG BKN010 BKN018
  • 210700Z AUTO 35005KT 320V020 9999 BKN013 OVC018 03/01 Q1019 TEMPO 2000 -SN BR BKN003
  • 210630Z AUTO 36005KT 9999 FEW006 OVC015 02/01 Q1018 TEMPO 2000 -SN BR BKN003
  • 210600Z AUTO 36006KT 5000 -DZ BR BKN006 OVC011 02/01 Q1018 TEMPO 2000 -SN BR BKN003
  • 210530Z AUTO 35007KT 9999 BKN008 OVC014 03/01 Q1018 TEMPO 2000 -SN BR BKN003

TAF TAF LFLC
Valid from the 21 at 03:00 until the 22 at 03:00 UTC


210200Z 2103/2203 36006KT 9999 BKN010 BKN018
PROB40
TEMPO 2103/2109 2000 -SN BR BKN003
BECMG 2116/2119 OVC015
BECMG 2200/2203 SCT012
ATIS : +33 4 73 62 74 38
No reported NOTAMs for that airfield.



MET'MAP, your aeronautical weather chart ! - Copyright ORBIFLY December 2007 - Disclaimer

ORBIFLY MET'MAP TEAM :

Programming & Development : Alexandra Zaïnal
Concept & Development : Baudouin d'Aumeries
Co-Development & Prog : Marc-Olivier Méhu
Technical & hardware support : Manuel Goepfert

Contact : metmap@orbifly.com




SOURCES & CREDITS :

   NOAA